createdAt,value
2023-03-06T00:01:27.901Z,60.52
2023-03-06T00:04:10.323Z,60.62
2023-03-06T00:06:49.426Z,60.24
2023-03-06T00:09:28.538Z,60.46
2023-03-06T00:12:07.613Z,60.73
2023-03-06T00:14:46.671Z,60.81
2023-03-06T00:17:30.987Z,60.57
2023-03-06T00:20:10.716Z,60.54
2023-03-06T00:22:50.543Z,60.35
2023-03-06T00:25:30.928Z,61.21
2023-03-06T00:28:10.016Z,61.14
2023-03-06T00:30:50.318Z,61.28
2023-03-06T00:33:34.545Z,61.18
2023-03-06T00:36:14.342Z,61.10
2023-03-06T00:38:53.403Z,60.85
2023-03-06T00:41:32.481Z,60.73
2023-03-06T00:44:12.021Z,60.53
2023-03-06T00:46:51.078Z,60.88
2023-03-06T00:49:35.294Z,61.15
2023-03-06T00:52:14.416Z,60.73
2023-03-06T00:54:53.590Z,60.60
2023-03-06T00:57:32.770Z,60.84
2023-03-06T01:00:14.133Z,60.39
2023-03-06T01:02:54.625Z,60.25
2023-03-06T01:05:43.200Z,61.08
2023-03-06T01:08:22.257Z,60.72
2023-03-06T01:11:01.506Z,60.48
2023-03-06T01:13:40.566Z,60.13
2023-03-06T01:16:22.411Z,60.51
2023-03-06T01:19:01.497Z,61.26
2023-03-06T01:21:45.660Z,60.65
2023-03-06T01:24:25.010Z,61.09
2023-03-06T01:27:05.522Z,60.72
2023-03-06T01:29:44.569Z,61.30
2023-03-06T01:32:23.867Z,61.46
2023-03-06T01:35:04.768Z,60.77
2023-03-06T01:37:49.467Z,60.43
2023-03-06T01:40:28.605Z,60.15
2023-03-06T01:43:17.450Z,60.24
2023-03-06T01:46:25.056Z,60.56
2023-03-06T01:49:08.115Z,61.18
2023-03-06T01:51:52.758Z,61.34
2023-03-06T01:54:42.705Z,61.45
2023-03-06T01:57:26.488Z,61.33
2023-03-06T02:00:12.210Z,61.97
2023-03-06T02:02:54.528Z,62.00
2023-03-06T02:05:34.500Z,61.81
2023-03-06T02:08:16.398Z,61.77
2023-03-06T02:11:08.768Z,61.61
2023-03-06T02:13:49.823Z,61.64
2023-03-06T02:16:33.408Z,61.83
2023-03-06T02:19:21.252Z,61.88
2023-03-06T02:22:00.393Z,62.15
2023-03-06T02:24:48.743Z,62.09
2023-03-06T02:27:33.934Z,61.82
2023-03-06T02:30:15.158Z,62.11
2023-03-06T02:32:54.257Z,62.21
2023-03-06T02:35:35.455Z,62.64
2023-03-06T02:38:19.366Z,62.26
2023-03-06T02:40:59.938Z,61.97
2023-03-06T02:43:46.932Z,62.03
2023-03-06T02:46:26.498Z,62.39
2023-03-06T02:49:05.602Z,62.42
2023-03-06T02:51:44.693Z,62.46
2023-03-06T02:54:24.088Z,61.76
2023-03-06T02:57:03.329Z,61.53
2023-03-06T02:59:47.468Z,62.31
2023-03-06T03:02:26.586Z,62.36
2023-03-06T03:05:05.684Z,62.10
2023-03-06T03:07:44.878Z,61.93
2023-03-06T03:10:24.169Z,62.26
2023-03-06T03:13:03.421Z,62.44
2023-03-06T03:15:47.651Z,62.12
2023-03-06T03:18:27.375Z,62.19
2023-03-06T03:21:06.528Z,62.14
2023-03-06T03:23:45.668Z,61.83
2023-03-06T03:26:28.899Z,61.54
2023-03-06T03:29:07.844Z,61.91
2023-03-06T03:31:51.884Z,62.39
2023-03-06T03:34:30.878Z,62.44
2023-03-06T03:37:09.935Z,61.99
2023-03-06T03:39:49.001Z,61.89
2023-03-06T03:42:28.012Z,62.17
2023-03-06T03:45:07.020Z,62.28
2023-03-06T03:47:51.276Z,62.20
2023-03-06T03:50:30.264Z,62.35
2023-03-06T03:53:09.636Z,62.66
2023-03-06T03:55:48.628Z,62.32
2023-03-06T03:58:27.679Z,62.60
2023-03-06T04:01:06.751Z,62.38
2023-03-06T04:03:51.112Z,61.39
2023-03-06T04:06:30.185Z,61.80
2023-03-06T04:09:09.455Z,61.90
2023-03-06T04:11:48.406Z,62.11
2023-03-06T04:14:27.564Z,62.12
2023-03-06T04:17:06.642Z,61.70
2023-03-06T04:19:50.714Z,62.18
2023-03-06T04:22:29.674Z,62.36
2023-03-06T04:25:08.777Z,62.40
2023-03-06T04:27:47.838Z,62.63
2023-03-06T04:30:27.130Z,62.57
2023-03-06T04:33:06.818Z,61.79
2023-03-06T04:35:51.538Z,61.57
2023-03-06T04:38:30.612Z,62.08
2023-03-06T04:41:09.626Z,62.63
2023-03-06T04:43:48.588Z,62.54
2023-03-06T04:46:27.748Z,62.45
2023-03-06T04:49:07.150Z,62.34
2023-03-06T04:51:51.243Z,62.82
2023-03-06T04:54:30.468Z,62.90
2023-03-06T04:57:11.412Z,62.96
2023-03-06T04:59:51.584Z,62.69
2023-03-06T05:02:32.467Z,62.40
2023-03-06T05:05:12.900Z,62.79
2023-03-06T05:07:57.052Z,63.26
2023-03-06T05:10:36.051Z,63.03
2023-03-06T05:13:15.261Z,62.64
2023-03-06T05:15:54.369Z,62.87
2023-03-06T05:18:33.404Z,63.36
2023-03-06T05:21:13.332Z,63.23
2023-03-06T05:23:57.504Z,63.70
2023-03-06T05:26:36.530Z,63.83
2023-03-06T05:29:15.554Z,63.86
2023-03-06T05:31:54.593Z,63.93
2023-03-06T05:34:33.709Z,64.40
2023-03-06T05:37:12.835Z,64.61
2023-03-06T05:39:57.660Z,64.76
2023-03-06T05:42:38.438Z,64.69
2023-03-06T05:45:19.022Z,64.75
2023-03-06T05:47:59.759Z,65.40
2023-03-06T05:50:38.961Z,65.87
2023-03-06T05:53:18.142Z,65.99
2023-03-06T05:56:10.044Z,65.84
2023-03-06T05:58:49.232Z,66.01
2023-03-06T06:01:29.431Z,66.13
2023-03-06T06:04:08.456Z,66.45
2023-03-06T06:06:47.413Z,66.42
2023-03-06T06:09:27.268Z,66.34
2023-03-06T06:12:11.950Z,66.19
2023-03-06T06:14:50.958Z,66.06
2023-03-06T06:17:30.085Z,66.02
2023-03-06T06:20:09.766Z,66.06
2023-03-06T06:22:48.835Z,66.02
2023-03-06T06:25:28.209Z,65.63
2023-03-06T06:28:13.352Z,66.48
2023-03-06T06:30:52.386Z,66.18
2023-03-06T06:33:32.334Z,66.29
2023-03-06T06:36:11.985Z,66.10
2023-03-06T06:38:51.007Z,66.10
2023-03-06T06:41:46.568Z,66.19
2023-03-06T06:44:35.202Z,66.36
2023-03-06T06:47:24.025Z,66.54
2023-03-06T06:50:04.506Z,66.42
2023-03-06T06:52:43.516Z,66.61
2023-03-06T06:55:22.719Z,66.33
2023-03-06T06:58:01.856Z,66.21
2023-03-06T07:00:45.926Z,66.13
2023-03-06T07:03:26.495Z,66.20
2023-03-06T07:06:05.488Z,66.28
2023-03-06T07:08:44.699Z,66.85
2023-03-06T07:11:25.699Z,66.73
2023-03-06T07:14:04.964Z,67.08
2023-03-06T07:16:49.025Z,67.77
2023-03-06T07:19:28.135Z,67.24
2023-03-06T07:22:08.549Z,66.92
2023-03-06T07:24:47.746Z,66.68
2023-03-06T07:27:27.235Z,65.94
2023-03-06T07:30:06.308Z,65.77
2023-03-06T07:32:50.363Z,65.50
2023-03-06T07:35:31.170Z,66.65
2023-03-06T07:38:10.315Z,67.03
2023-03-06T07:40:49.366Z,66.88
2023-03-06T07:43:28.405Z,66.74
2023-03-06T07:46:08.303Z,65.03
2023-03-06T07:48:52.727Z,65.33
2023-03-06T07:51:31.734Z,64.14
2023-03-06T07:54:10.898Z,63.99
2023-03-06T07:56:49.928Z,64.02
2023-03-06T07:59:29.369Z,64.16
2023-03-06T08:02:10.202Z,63.77
2023-03-06T08:04:59.408Z,64.05
2023-03-06T08:07:38.851Z,64.29
2023-03-06T08:10:21.284Z,64.88
2023-03-06T08:13:00.321Z,65.17
2023-03-06T08:15:39.412Z,64.42
2023-03-06T08:18:18.618Z,64.63
2023-03-06T08:21:08.841Z,64.95
2023-03-06T08:23:48.945Z,64.05
2023-03-06T08:26:29.879Z,64.13
2023-03-06T08:29:12.301Z,63.45
2023-03-06T08:31:53.532Z,63.33
2023-03-06T08:34:33.339Z,63.62
2023-03-06T08:37:17.455Z,63.83
2023-03-06T08:39:56.460Z,63.22
2023-03-06T08:42:35.461Z,62.47
2023-03-06T08:45:16.257Z,62.20
2023-03-06T08:47:55.253Z,62.54
2023-03-06T08:50:34.282Z,62.38
2023-03-06T08:53:18.462Z,62.66
2023-03-06T08:55:57.518Z,62.39
2023-03-06T08:58:36.770Z,63.30
2023-03-06T09:01:20.357Z,62.82
2023-03-06T09:04:02.712Z,63.19
2023-03-06T09:06:46.222Z,61.56
2023-03-06T09:09:30.317Z,61.11
2023-03-06T09:12:09.377Z,59.59
2023-03-06T09:14:48.344Z,60.02
2023-03-06T09:17:27.450Z,59.75
2023-03-06T09:20:06.604Z,60.88
2023-03-06T09:22:46.629Z,60.13
2023-03-06T09:25:30.754Z,59.51
2023-03-06T09:28:11.990Z,59.82
2023-03-06T09:30:51.289Z,60.43
2023-03-06T09:33:32.269Z,60.85
2023-03-06T09:36:12.967Z,61.61
2023-03-06T09:38:52.156Z,61.49
2023-03-06T09:41:41.430Z,60.47
2023-03-06T09:44:26.950Z,60.16
2023-03-06T09:47:43.188Z,60.56
2023-03-06T09:50:44.844Z,59.59
2023-03-06T09:53:45.482Z,58.91
2023-03-06T09:56:31.993Z,59.19
2023-03-06T09:59:24.310Z,59.42
2023-03-06T10:02:15.706Z,59.05
2023-03-06T10:05:02.679Z,58.59
2023-03-06T10:07:52.586Z,58.58
2023-03-06T10:10:35.002Z,58.68
2023-03-06T10:13:26.468Z,59.07
2023-03-06T10:16:24.134Z,57.85
2023-03-06T10:19:08.515Z,57.25
2023-03-06T10:21:56.708Z,57.68
2023-03-06T10:24:52.672Z,58.44
2023-03-06T10:27:45.915Z,57.84
2023-03-06T10:30:38.898Z,57.83
2023-03-06T10:33:33.812Z,57.61
2023-03-06T10:36:17.706Z,57.52
2023-03-06T10:38:56.841Z,57.88
2023-03-06T10:41:39.274Z,57.92
2023-03-06T10:44:27.451Z,57.15
2023-03-06T10:47:07.182Z,56.61
2023-03-06T10:50:06.675Z,56.06
2023-03-06T10:52:47.137Z,55.27
2023-03-06T10:55:35.978Z,55.52
2023-03-06T10:58:25.749Z,54.01
2023-03-06T11:01:13.031Z,53.85
2023-03-06T11:03:53.347Z,53.43
2023-03-06T11:06:43.041Z,52.96
2023-03-06T11:09:27.585Z,54.10
2023-03-06T11:12:31.236Z,52.97
2023-03-06T11:15:28.762Z,52.40
2023-03-06T11:18:11.354Z,52.29
2023-03-06T11:20:53.360Z,52.57
2023-03-06T11:23:48.199Z,51.88
2023-03-06T11:26:38.553Z,50.92
2023-03-06T11:29:38.860Z,50.39
2023-03-06T11:32:27.291Z,49.80
2023-03-06T11:35:11.608Z,48.32
2023-03-06T11:37:59.458Z,48.50
2023-03-06T11:40:50.484Z,47.95
2023-03-06T11:43:37.544Z,46.60
2023-03-06T11:46:26.854Z,45.06
2023-03-06T11:49:17.880Z,44.22
2023-03-06T11:52:02.292Z,43.00
2023-03-06T11:54:41.389Z,45.15
2023-03-06T11:57:29.947Z,45.29
2023-03-06T12:00:22.574Z,44.72
2023-03-06T12:03:28.288Z,44.46
2023-03-06T12:06:12.868Z,44.60
2023-03-06T12:09:05.802Z,44.63
2023-03-06T12:11:55.682Z,45.79
2023-03-06T12:14:59.699Z,46.62
2023-03-06T12:17:57.392Z,47.13
2023-03-06T12:20:59.912Z,46.73
2023-03-06T12:23:58.370Z,46.20
2023-03-06T12:27:01.743Z,45.43
2023-03-06T12:30:22.960Z,45.53
2023-03-06T12:33:14.331Z,45.67
2023-03-06T12:36:17.646Z,45.19
2023-03-06T12:39:07.352Z,45.19
2023-03-06T12:41:56.626Z,45.27
2023-03-06T12:45:02.098Z,44.98
2023-03-06T12:47:49.327Z,43.98
2023-03-06T12:50:33.155Z,43.83
2023-03-06T12:53:19.497Z,44.06
2023-03-06T12:56:00.162Z,44.20
2023-03-06T12:58:53.674Z,44.14
2023-03-06T13:01:56.944Z,44.20
2023-03-06T13:05:10.521Z,38.15
2023-03-06T13:08:10.264Z,38.08
2023-03-06T13:10:53.407Z,38.31
2023-03-06T13:13:38.646Z,38.21
2023-03-06T13:16:20.928Z,38.25
2023-03-06T13:19:11.171Z,38.97
2023-03-06T13:21:52.599Z,33.12
2023-03-06T13:24:33.460Z,32.00
2023-03-06T13:27:15.710Z,32.25
2023-03-06T13:30:10.496Z,30.15
2023-03-06T13:32:50.010Z,27.98
2023-03-06T13:36:03.702Z,28.49
2023-03-06T13:39:03.341Z,30.12
2023-03-06T13:41:50.622Z,31.85
2023-03-06T13:44:55.077Z,31.85
2023-03-06T13:50:49.474Z,32.97
2023-03-06T13:53:58.900Z,31.33
2023-03-06T13:57:12.805Z,30.98
2023-03-06T14:00:25.987Z,28.91
2023-03-06T14:03:34.876Z,28.20
2023-03-06T14:06:44.338Z,28.74
2023-03-06T14:09:33.593Z,30.46
2023-03-06T14:12:27.703Z,37.04
2023-03-06T14:15:11.978Z,39.99
2023-03-06T14:18:03.472Z,41.10
2023-03-06T14:20:49.744Z,41.64
2023-03-06T14:23:36.363Z,41.66
2023-03-06T14:26:21.245Z,41.90
2023-03-06T14:29:10.350Z,42.43
2023-03-06T14:31:50.597Z,42.72
2023-03-06T14:34:33.389Z,42.78
2023-03-06T14:37:26.098Z,42.98
2023-03-06T14:40:06.987Z,42.33
2023-03-06T14:42:46.063Z,41.90
2023-03-06T14:45:30.349Z,41.11
2023-03-06T14:48:09.337Z,41.17
2023-03-06T14:50:49.200Z,41.33
2023-03-06T14:53:33.984Z,41.31
2023-03-06T14:56:14.779Z,40.82
2023-03-06T14:59:01.348Z,40.74
2023-03-06T15:01:49.468Z,41.57
2023-03-06T15:04:38.992Z,41.82
2023-03-06T15:07:23.182Z,41.86
2023-03-06T15:10:02.874Z,42.16
2023-03-06T15:12:44.763Z,42.31
2023-03-06T15:15:39.418Z,42.54
2023-03-06T15:18:40.299Z,43.07
2023-03-06T15:21:28.154Z,43.05
2023-03-06T15:24:07.183Z,43.11
2023-03-06T15:26:47.276Z,43.86
2023-03-06T15:29:29.950Z,44.37
2023-03-06T15:32:33.135Z,45.02
2023-03-06T15:35:39.560Z,45.19
2023-03-06T15:38:33.351Z,45.42
2023-03-06T15:41:14.275Z,45.09
2023-03-06T15:43:53.442Z,45.19
2023-03-06T15:46:32.809Z,45.16
2023-03-06T15:49:11.924Z,45.24
2023-03-06T15:51:56.019Z,45.21
2023-03-06T15:54:35.025Z,45.12
2023-03-06T15:57:26.055Z,44.98
2023-03-06T16:00:25.380Z,45.26
2023-03-06T16:03:06.360Z,45.49
2023-03-06T16:05:46.115Z,45.28
2023-03-06T16:08:30.719Z,45.16
2023-03-06T16:11:11.222Z,45.40
2023-03-06T16:13:51.392Z,45.05
2023-03-06T16:16:40.621Z,45.40
2023-03-06T16:19:26.418Z,45.77
2023-03-06T16:22:06.063Z,46.17
2023-03-06T16:24:50.624Z,46.51
2023-03-06T16:27:29.999Z,46.90
2023-03-06T16:30:09.053Z,47.21
2023-03-06T16:32:48.137Z,47.90
2023-03-06T16:35:27.233Z,47.91
2023-03-06T16:38:06.290Z,48.11
2023-03-06T16:40:50.383Z,48.07
2023-03-06T16:43:29.368Z,48.35
2023-03-06T16:46:13.046Z,48.11
2023-03-06T16:48:53.247Z,47.79
2023-03-06T16:51:32.854Z,48.01
2023-03-06T16:54:12.286Z,48.64
2023-03-06T16:56:56.318Z,49.21
2023-03-06T16:59:35.356Z,49.35
2023-03-06T17:02:14.367Z,49.63
2023-03-06T17:04:53.410Z,49.97
2023-03-06T17:07:32.399Z,50.06
2023-03-06T17:10:17.453Z,50.25
2023-03-06T17:13:03.441Z,50.36
2023-03-06T17:15:42.527Z,50.61
2023-03-06T17:18:21.553Z,50.76
2023-03-06T17:21:01.129Z,51.02
2023-03-06T17:23:40.155Z,51.10
2023-03-06T17:26:21.870Z,51.79
2023-03-06T17:29:07.154Z,52.13
2023-03-06T17:31:46.320Z,52.58
2023-03-06T17:34:25.301Z,52.52
2023-03-06T17:37:04.318Z,52.88
2023-03-06T17:39:45.238Z,53.10
2023-03-06T17:42:24.263Z,53.25
2023-03-06T17:45:10.215Z,53.22
2023-03-06T17:47:49.438Z,53.61
2023-03-06T17:50:28.623Z,53.79
2023-03-06T17:53:07.923Z,53.87
2023-03-06T17:55:46.907Z,54.30
2023-03-06T17:58:25.978Z,54.71
2023-03-06T18:01:17.065Z,54.83
2023-03-06T18:03:57.982Z,54.71
2023-03-06T18:06:38.471Z,54.80
2023-03-06T18:09:17.526Z,54.81
2023-03-06T18:11:56.864Z,55.07
2023-03-06T18:14:37.954Z,55.27
2023-03-06T18:17:21.996Z,55.49
2023-03-06T18:20:01.978Z,55.56
2023-03-06T18:22:41.121Z,55.65
2023-03-06T18:25:20.172Z,55.95
2023-03-06T18:27:59.174Z,56.00
2023-03-06T18:30:38.343Z,56.08
2023-03-06T18:33:22.410Z,56.08
2023-03-06T18:36:01.629Z,55.95
2023-03-06T18:38:42.292Z,56.37
2023-03-06T18:41:21.639Z,56.23
2023-03-06T18:44:02.459Z,56.33
2023-03-06T18:46:44.051Z,56.01
2023-03-06T18:49:28.222Z,56.20
2023-03-06T18:52:07.202Z,56.45
2023-03-06T18:54:46.498Z,57.07
2023-03-06T18:57:25.537Z,57.17
2023-03-06T19:00:04.565Z,57.76
2023-03-06T19:02:43.616Z,58.08
2023-03-06T19:05:27.717Z,58.36
2023-03-06T19:08:06.715Z,58.17
2023-03-06T19:10:48.420Z,58.15
2023-03-06T19:13:27.426Z,58.53
2023-03-06T19:16:06.935Z,58.51
2023-03-06T19:18:47.125Z,58.28
2023-03-06T19:21:33.473Z,58.50
2023-03-06T19:24:15.192Z,58.91
2023-03-06T19:26:54.187Z,58.67
2023-03-06T19:29:33.495Z,58.77
2023-03-06T19:32:13.324Z,58.57
2023-03-06T19:34:59.591Z,57.91
2023-03-06T19:37:44.034Z,58.20
2023-03-06T19:40:24.209Z,58.26
2023-03-06T19:43:03.270Z,56.56
2023-03-06T19:45:42.314Z,57.04
2023-03-06T19:48:22.822Z,57.08
2023-03-06T19:51:02.033Z,57.54
2023-03-06T19:53:46.948Z,57.98
2023-03-06T19:56:28.355Z,58.12
2023-03-06T19:59:07.375Z,57.13
2023-03-06T20:01:46.752Z,57.42
2023-03-06T20:04:26.013Z,57.85
2023-03-06T20:07:05.809Z,58.02
2023-03-06T20:09:49.850Z,57.99
2023-03-06T20:12:28.852Z,57.73
2023-03-06T20:15:07.852Z,57.48
2023-03-06T20:17:47.184Z,57.39
2023-03-06T20:20:26.598Z,57.46
2023-03-06T20:23:05.788Z,57.55
2023-03-06T20:25:49.849Z,57.57
2023-03-06T20:28:28.975Z,57.73
2023-03-06T20:31:14.270Z,57.34
2023-03-06T20:33:55.259Z,57.15
2023-03-06T20:36:37.010Z,57.03
2023-03-06T20:39:21.371Z,56.45
2023-03-06T20:42:05.441Z,56.35
2023-03-06T20:44:44.415Z,56.00
2023-03-06T20:47:23.417Z,56.09
2023-03-06T20:50:02.629Z,55.46
2023-03-06T20:52:41.612Z,56.10
2023-03-06T20:55:20.887Z,56.04
2023-03-06T20:58:04.924Z,55.89
2023-03-06T21:00:43.992Z,56.58
2023-03-06T21:03:23.013Z,56.23
2023-03-06T21:06:02.077Z,56.71
2023-03-06T21:08:41.048Z,56.89
2023-03-06T21:11:20.587Z,57.20
2023-03-06T21:14:05.120Z,57.17
2023-03-06T21:16:44.208Z,56.78
2023-03-06T21:19:23.238Z,56.83
2023-03-06T21:22:02.534Z,57.00
2023-03-06T21:24:42.454Z,56.43
2023-03-06T21:27:21.640Z,56.59
2023-03-06T21:30:05.872Z,56.57
2023-03-06T21:32:44.910Z,56.72
2023-03-06T21:35:24.068Z,56.77
2023-03-06T21:38:03.194Z,57.10
2023-03-06T21:40:42.272Z,57.26
2023-03-06T21:43:21.356Z,57.10
2023-03-06T21:46:05.449Z,57.06
2023-03-06T21:48:44.641Z,56.88
2023-03-06T21:51:26.228Z,57.14
2023-03-06T21:54:05.630Z,57.30
2023-03-06T21:56:44.783Z,57.37
2023-03-06T21:59:23.856Z,57.19
2023-03-06T22:02:07.940Z,57.17
2023-03-06T22:04:47.067Z,56.94
2023-03-06T22:07:26.164Z,56.54
2023-03-06T22:10:05.555Z,56.50
2023-03-06T22:12:46.800Z,56.70
2023-03-06T22:15:26.456Z,56.72
2023-03-06T22:18:16.708Z,56.92
2023-03-06T22:20:55.753Z,57.38
2023-03-06T22:23:34.934Z,57.79
2023-03-06T22:26:16.479Z,57.71
2023-03-06T22:28:55.899Z,57.78
2023-03-06T22:31:35.178Z,57.98
2023-03-06T22:34:19.400Z,58.22
2023-03-06T22:36:58.411Z,58.15
2023-03-06T22:39:37.601Z,58.28
2023-03-06T22:42:16.628Z,58.40
2023-03-06T22:44:55.687Z,58.54
2023-03-06T22:47:34.713Z,58.54
2023-03-06T22:50:19.748Z,58.54
2023-03-06T22:52:58.808Z,58.43
2023-03-06T22:55:37.941Z,58.45
2023-03-06T22:58:16.948Z,58.53
2023-03-06T23:00:57.603Z,58.43
2023-03-06T23:03:36.649Z,58.47
2023-03-06T23:06:24.440Z,58.22
2023-03-06T23:09:06.787Z,57.91
2023-03-06T23:11:45.918Z,58.12
2023-03-06T23:14:26.253Z,58.10
2023-03-06T23:17:05.815Z,57.78
2023-03-06T23:19:44.994Z,57.49
2023-03-06T23:22:30.210Z,57.50
2023-03-06T23:25:09.630Z,57.48
2023-03-06T23:27:48.685Z,57.68
2023-03-06T23:30:27.761Z,57.72
2023-03-06T23:33:06.891Z,57.75
2023-03-06T23:35:46.374Z,57.83
2023-03-06T23:38:30.696Z,57.27
2023-03-06T23:41:10.160Z,57.26
2023-03-06T23:43:49.646Z,57.25
2023-03-06T23:46:28.751Z,57.16
2023-03-06T23:49:08.344Z,57.24
2023-03-06T23:51:47.370Z,57.27
2023-03-06T23:54:31.471Z,57.29
2023-03-06T23:57:11.042Z,57.10
2023-03-06T23:59:50.717Z,57.06
